Time;durP1;ratioP1;P1;durP2;ratioP2;P2;SDS_P1;SDS_P2;PMS_P1;PMS_P2;Temp;Humidity;BMP_temperature;BMP_pressure;BME280_temperature;BME280_humidity;BME280_pressure;Samples;Min_cycle;Max_cycle;Signal;HPM_P1;HPM_P2
2022/09/17 00:01:38;;;;;;;8.53;1.83;;;;;;;10.98;86.53;99267.00;5242140;56;1137053;-65
2022/09/17 00:06:43;;;;;;;4.65;1.20;;;;;;;10.99;86.93;99263.37;5241668;56;1137159;-68
2022/09/17 00:11:49;;;;;;;5.73;1.30;;;;;;;10.93;87.30;99251.56;5229273;56;1137209;-69
2022/09/17 00:16:55;;;;;;;6.33;1.63;;;;;;;10.92;87.39;99253.87;5229127;56;1137092;-68
2022/09/17 00:22:02;;;;;;;4.28;1.32;;;;;;;10.89;87.87;99258.97;5194500;56;1137028;-72
2022/09/17 00:27:09;;;;;;;7.80;1.30;;;;;;;10.86;88.21;99261.08;5197910;56;1137091;-68
2022/09/17 00:32:15;;;;;;;7.57;2.00;;;;;;;10.88;88.14;99260.44;5155238;56;1136964;-72
2022/09/17 00:37:21;;;;;;;7.25;1.65;;;;;;;10.86;88.49;99269.84;5155198;56;1136860;-70
2022/09/17 00:42:26;;;;;;;5.97;1.10;;;;;;;10.83;88.72;99270.17;5154652;57;1136927;-71
2022/09/17 00:47:48;;;;;;;3.27;0.90;;;;;;;10.86;88.72;99266.38;5142950;57;1137257;-72
2022/09/17 00:53:15;;;;;;;3.53;1.17;;;;;;;10.85;89.52;99265.53;5214404;55;1137022;-69
2022/09/17 00:58:24;;;;;;;7.97;1.40;;;;;;;10.84;89.25;99267.88;5299120;56;1136883;-66
2022/09/17 01:03:31;;;;;;;2.67;1.07;;;;;;;10.83;89.40;99268.85;5298900;55;1137188;-69
2022/09/17 01:09:10;;;;;;;8.33;1.57;;;;;;;10.82;89.26;99264.54;5298927;56;1136910;-68
2022/09/17 01:14:49;;;;;;;5.97;1.30;;;;;;;10.81;89.50;99264.69;5298971;55;1137038;-68
2022/09/17 01:20:28;;;;;;;4.53;1.10;;;;;;;10.81;90.03;99258.91;5298953;55;1136920;-67
2022/09/17 01:25:58;;;;;;;2.75;1.00;;;;;;;10.84;89.80;99257.78;5282109;56;1134905;-69
2022/09/17 01:31:18;;;;;;;2.80;1.27;;;;;;;10.82;90.15;99262.39;5210602;56;1134882;-71
2022/09/17 01:36:41;;;;;;;5.83;1.07;;;;;;;10.78;90.42;99258.38;5210605;56;1134884;-68
2022/09/17 01:42:00;;;;;;;0.70;0.70;;;;;;;10.84;90.53;99255.14;5185627;56;1132989;-71
2022/09/17 01:47:15;;;;;;;3.03;1.17;;;;;;;10.87;91.11;99258.78;5298082;56;1137021;-69
2022/09/17 01:52:21;;;;;;;3.13;0.80;;;;;;;10.89;91.51;99258.97;5244748;55;1136859;-68
2022/09/17 01:57:43;;;;;;;1.57;0.77;;;;;;;10.91;92.73;99259.66;5298722;56;1137158;-70
2022/09/17 02:03:14;;;;;;;6.77;1.50;;;;;;;10.91;92.65;99262.30;5298704;56;1136943;-68
2022/09/17 02:08:36;;;;;;;1.93;0.67;;;;;;;10.92;93.78;99259.16;5298725;56;1136831;-68
2022/09/17 02:14:06;;;;;;;2.43;0.77;;;;;;;10.90;94.48;99259.80;5298687;56;1137010;-70
2022/09/17 02:19:27;;;;;;;1.50;0.53;;;;;;;10.90;94.81;99262.45;5297905;55;1137014;-68
2022/09/17 02:24:44;;;;;;;5.83;0.97;;;;;;;10.83;96.97;99265.38;5266316;56;1136970;-70
2022/09/17 02:29:50;;;;;;;2.17;1.03;;;;;;;10.80;97.67;99264.34;5265999;56;1136947;-69
2022/09/17 02:34:56;;;;;;;3.13;1.03;;;;;;;10.76;99.87;99266.95;5142630;57;1137172;-70
2022/09/17 02:40:03;;;;;;;3.30;1.10;;;;;;;10.78;99.89;99268.95;5241463;56;1136982;-68
2022/09/17 02:45:22;;;;;;;2.43;0.70;;;;;;;10.77;99.56;99275.22;5189330;56;1136956;-68
2022/09/17 02:50:48;;;;;;;4.30;0.80;;;;;;;10.80;99.99;99278.41;5160127;56;1134992;-69
2022/09/17 02:56:25;;;;;;;5.43;0.90;;;;;;;10.83;100.00;99279.92;5236699;56;1134956;-70
2022/09/17 03:01:44;;;;;;;3.00;0.87;;;;;;;10.69;100.00;99268.55;5237277;56;1137038;-69
2022/09/17 03:06:53;;;;;;;3.07;0.80;;;;;;;10.63;100.00;99271.28;5241178;56;1136900;-66
2022/09/17 03:11:59;;;;;;;1.80;0.90;;;;;;;10.63;100.00;99269.97;5279605;55;1134814;-69
2022/09/17 03:17:05;;;;;;;2.63;0.80;;;;;;;10.63;100.00;99271.28;5264466;55;1134889;-69
2022/09/17 03:22:12;;;;;;;2.83;0.70;;;;;;;10.66;100.00;99274.95;5182477;56;1139039;-70
2022/09/17 03:27:18;;;;;;;1.70;0.87;;;;;;;10.70;100.00;99285.55;5180865;56;1148770;-68
2022/09/17 03:32:24;;;;;;;4.13;1.10;;;;;;;10.64;100.00;99278.73;5127481;56;1138969;-67
2022/09/17 03:37:30;;;;;;;2.77;0.70;;;;;;;10.61;100.00;99282.50;5171691;56;1139209;-65
2022/09/17 03:42:36;;;;;;;2.77;0.80;;;;;;;10.59;100.00;99279.17;5183381;56;1138999;-65
2022/09/17 03:47:41;;;;;;;2.33;0.80;;;;;;;10.56;100.00;99280.78;5134470;57;1139315;-66
2022/09/17 03:52:47;;;;;;;0.53;0.50;;;;;;;10.59;100.00;99275.20;5182129;56;1139030;-68
2022/09/17 03:57:54;;;;;;;2.23;0.70;;;;;;;10.58;100.00;99277.02;5219976;56;1139038;-66
2022/09/17 04:03:00;;;;;;;7.10;1.20;;;;;;;10.61;100.00;99274.56;5219998;56;1139021;-67
2022/09/17 04:08:06;;;;;;;2.50;0.80;;;;;;;10.61;100.00;99272.41;5219879;56;1139030;-67
2022/09/17 04:13:13;;;;;;;2.13;0.70;;;;;;;10.59;100.00;99276.52;5223437;56;1139022;-66
2022/09/17 04:18:19;;;;;;;0.83;0.60;;;;;;;10.53;100.00;99281.11;5240076;56;1139029;-63
2022/09/17 04:23:25;;;;;;;2.67;0.67;;;;;;;10.53;100.00;99277.97;5236069;55;1138999;-61
2022/09/17 04:28:31;;;;;;;2.33;0.80;;;;;;;10.55;100.00;99282.59;5234456;56;1139269;-65
2022/09/17 04:33:37;;;;;;;2.57;1.63;;;;;;;10.57;100.00;99281.12;5232636;56;1139048;-66
2022/09/17 04:38:43;;;;;;;2.20;0.80;;;;;;;10.53;100.00;99283.26;5239615;56;1139062;-65
2022/09/17 04:43:49;;;;;;;1.10;0.93;;;;;;;10.53;100.00;99285.91;5211887;56;1139447;-63
2022/09/17 04:48:54;;;;;;;1.30;0.90;;;;;;;10.57;100.00;99288.56;5181187;56;1139168;-63
2022/09/17 04:54:00;;;;;;;1.13;0.90;;;;;;;10.58;100.00;99282.30;5238383;56;1139249;-61
2022/09/17 04:59:06;;;;;;;0.73;0.67;;;;;;;10.60;100.00;99288.77;5241908;56;1139056;-63
2022/09/17 05:04:12;;;;;;;1.07;0.78;;;;;;;10.61;100.00;99285.63;5241460;56;1139082;-65
2022/09/17 05:09:17;;;;;;;1.00;0.60;;;;;;;10.62;100.00;99299.20;5240075;56;1138999;-62
2022/09/17 05:14:23;;;;;;;0.70;0.70;;;;;;;10.65;100.00;99299.73;5235676;56;1138945;-65
2022/09/17 05:19:29;;;;;;;1.67;0.67;;;;;;;10.61;100.00;99307.62;5237355;56;1139269;-69
2022/09/17 05:24:38;;;;;;;1.00;1.00;;;;;;;10.60;100.00;99315.70;5235968;56;1138996;-68
2022/09/17 05:29:44;;;;;;;0.83;0.83;;;;;;;10.58;100.00;99312.70;5236122;56;1138886;-68
2022/09/17 05:34:49;;;;;;;0.80;0.80;;;;;;;10.53;100.00;99316.30;5238547;56;1138754;-66
2022/09/17 05:39:55;;;;;;;2.83;1.00;;;;;;;10.55;100.00;99320.92;5238917;56;1139041;-67
2022/09/17 05:45:00;;;;;;;2.52;1.00;;;;;;;10.56;100.00;99324.41;5236087;56;1139055;-66
2022/09/17 05:50:06;;;;;;;0.70;0.70;;;;;;;10.61;100.00;99332.73;5238926;56;1138959;-67
2022/09/17 05:55:12;;;;;;;1.70;0.63;;;;;;;10.67;100.00;99337.45;5241170;56;1139119;-66
2022/09/17 06:00:19;;;;;;;0.70;0.70;;;;;;;10.75;100.00;99338.00;5240101;56;1139068;-70
2022/09/17 06:05:25;;;;;;;6.00;1.25;;;;;;;10.75;100.00;99338.00;5202799;56;1139198;-67
2022/09/17 06:10:31;;;;;;;0.60;0.60;;;;;;;10.85;100.00;99358.11;5218574;56;1139136;-64
2022/09/17 06:15:37;;;;;;;2.10;0.60;;;;;;;10.79;100.00;99361.37;5241566;56;1139249;-67
2022/09/17 06:20:42;;;;;;;0.97;0.97;;;;;;;10.81;100.00;99363.38;5241498;56;1138963;-67
2022/09/17 06:25:58;;;;;;;1.37;0.70;;;;;;;10.87;100.00;99364.58;5202039;56;1139037;-69
2022/09/17 06:31:07;;;;;;;1.67;1.37;;;;;;;10.91;100.00;99369.43;5194221;56;1139018;-65
2022/09/17 06:36:13;;;;;;;1.30;1.20;;;;;;;10.94;100.00;99377.56;5203112;56;1136925;-66
2022/09/17 06:41:20;;;;;;;1.10;1.10;;;;;;;10.93;100.00;99378.55;5177442;56;1136821;-65
2022/09/17 06:46:26;;;;;;;7.93;1.37;;;;;;;10.91;100.00;99380.02;5238418;56;1136916;-64
2022/09/17 06:51:31;;;;;;;1.00;1.00;;;;;;;10.91;100.00;99377.86;5241302;56;1137064;-68
2022/09/17 06:56:37;;;;;;;1.70;1.60;;;;;;;10.90;100.00;99374.38;5142660;57;1137010;-69
2022/09/17 07:01:42;;;;;;;3.60;2.13;;;;;;;10.91;100.00;99379.18;5241893;56;1136861;-66
2022/09/17 07:06:48;;;;;;;4.20;1.80;;;;;;;10.90;100.00;99378.34;5207661;56;1136929;-70
2022/09/17 07:11:54;;;;;;;2.20;2.00;;;;;;;10.93;100.00;99385.99;5192752;56;1137232;-67
2022/09/17 07:17:00;;;;;;;5.22;2.62;;;;;;;11.00;100.00;99388.05;5175042;56;1137178;-67
2022/09/17 07:22:05;;;;;;;3.30;2.50;;;;;;;11.07;100.00;99389.11;5156988;56;1137002;-67
2022/09/17 07:27:12;;;;;;;6.30;2.80;;;;;;;11.12;100.00;99385.53;5212863;56;1136974;-68
2022/09/17 07:32:17;;;;;;;4.10;2.60;;;;;;;11.19;100.00;99396.67;5217437;56;1136934;-65
2022/09/17 07:37:23;;;;;;;4.53;3.30;;;;;;;11.27;100.00;99391.97;5217784;56;1137008;-69
2022/09/17 07:42:31;;;;;;;3.23;2.93;;;;;;;11.33;100.00;99391.34;5245182;55;1136986;-68
2022/09/17 07:47:41;;;;;;;3.47;2.60;;;;;;;11.41;100.00;99390.11;5207983;56;1136972;-68
2022/09/17 07:52:48;;;;;;;2.80;2.52;;;;;;;11.47;100.00;99384.68;5246633;56;1137007;-69
2022/09/17 07:57:54;;;;;;;4.27;3.50;;;;;;;11.59;100.00;99387.45;5244066;56;1136905;-68
2022/09/17 08:03:00;;;;;;;5.20;3.33;;;;;;;11.75;100.00;99398.67;5295823;56;1134846;-67
2022/09/17 08:08:06;;;;;;;2.97;2.37;;;;;;;11.81;100.00;99392.28;5316186;56;21145;-67
2022/09/17 08:13:12;;;;;;;5.87;3.17;;;;;;;11.93;100.00;99387.06;5268649;55;1134862;-68
2022/09/17 08:18:18;;;;;;;2.77;2.50;;;;;;;12.02;100.00;99387.97;5295511;55;1139059;-68
2022/09/17 08:23:25;;;;;;;2.50;2.30;;;;;;;12.12;100.00;99386.03;5295793;55;1138966;-67
2022/09/17 08:28:31;;;;;;;3.33;2.67;;;;;;;12.21;100.00;99376.33;5274597;56;1138835;-67
2022/09/17 08:33:40;;;;;;;5.85;2.52;;;;;;;12.26;100.00;99375.34;5269201;55;1139034;-65
2022/09/17 08:38:47;;;;;;;4.20;2.90;;;;;;;12.37;100.00;99375.58;5228647;56;1139030;-71
2022/09/17 08:44:09;;;;;;;2.30;2.20;;;;;;;12.54;100.00;99374.14;5243440;55;1138951;-66
2022/09/17 08:49:37;;;;;;;4.40;2.27;;;;;;;12.78;100.00;99365.95;5220358;56;1139119;-68
2022/09/17 08:54:55;;;;;;;2.50;2.30;;;;;;;13.14;100.00;99367.36;5031971;57;1139041;-71
2022/09/17 09:00:17;;;;;;;4.93;2.40;;;;;;;13.48;100.00;99367.27;5063577;57;1139012;-66
2022/09/17 09:05:43;;;;;;;4.63;2.63;;;;;;;13.72;100.00;99376.58;5040433;57;1139024;-68
2022/09/17 09:10:56;;;;;;;2.57;1.77;;;;;;;13.75;100.00;99382.56;5043846;58;1139029;-67
2022/09/17 09:16:09;;;;;;;5.57;1.70;;;;;;;13.64;100.00;99391.67;4985638;58;1139240;-69
2022/09/17 09:21:32;;;;;;;;;;;;;;;13.68;100.00;99394.34;5027994;58;1139031;-70
2022/09/17 09:26:56;;;;;;;3.53;1.63;;;;;;;13.78;100.00;99390.17;5174523;56;976260;-66
2022/09/17 09:32:30;;;;;;;1.37;1.27;;;;;;;13.93;100.00;99385.34;4993305;58;1135107;-68
2022/09/17 09:37:39;;;;;;;4.67;1.43;;;;;;;14.01;100.00;99395.16;4980095;58;1137083;-69
2022/09/17 09:42:48;;;;;;;3.20;1.37;;;;;;;14.16;100.00;99389.48;4979216;58;1137041;-68
2022/09/17 09:48:01;;;;;;;2.23;1.23;;;;;;;14.24;99.20;99396.09;4975015;58;1137066;-68
2022/09/17 09:53:32;;;;;;;1.30;1.20;;;;;;;14.37;98.16;99396.89;4975583;58;1135002;-70
2022/09/17 09:58:41;;;;;;;5.90;2.50;;;;;;;14.46;99.03;99404.39;4979576;58;1136995;-70
2022/09/17 10:03:50;;;;;;;4.57;4.17;;;;;;;14.67;97.55;99400.64;4980169;58;1137278;-68
2022/09/17 10:09:01;;;;;;;2.37;0.80;;;;;;;14.76;97.57;99396.96;5170168;55;1136866;-68
2022/09/17 10:14:28;;;;;;;3.40;3.00;;;;;;;14.99;96.21;99398.33;5189904;56;1136922;-70
2022/09/17 10:19:34;;;;;;;1.20;1.07;;;;;;;15.53;95.37;99402.34;5244447;55;1137185;-69
2022/09/17 10:24:40;;;;;;;1.33;0.90;;;;;;;15.79;90.96;99418.31;5243408;55;1136962;-65
2022/09/17 10:29:50;;;;;;;1.23;0.80;;;;;;;15.45;89.56;99414.70;5206298;55;1136911;-70
2022/09/17 10:35:06;;;;;;;7.83;4.40;;;;;;;15.29;92.11;99408.64;5109381;57;1137558;-65
2022/09/17 10:40:28;;;;;;;2.07;1.70;;;;;;;15.61;92.72;99403.12;5006124;57;1136958;-68
2022/09/17 10:45:39;;;;;;;1.27;0.87;;;;;;;16.17;93.85;99397.81;5191078;56;1136936;-73
2022/09/17 10:50:55;;;;;;;2.73;1.00;;;;;;;16.40;89.37;99405.73;5170113;56;1136914;-72
2022/09/17 10:56:05;;;;;;;2.10;0.63;;;;;;;16.36;84.93;99399.59;5170607;56;1136954;-67
2022/09/17 11:01:36;;;;;;;0.90;0.50;;;;;;;15.84;89.89;99423.11;5184475;56;1136958;-68
2022/09/17 11:06:57;;;;;;;0.80;0.60;;;;;;;15.16;89.36;99423.88;5217289;56;1137180;-68
2022/09/17 11:12:39;;;;;;;1.37;1.10;;;;;;;14.75;90.74;99413.43;5188187;56;1136788;-68
2022/09/17 11:18:21;;;;;;;2.27;1.20;;;;;;;14.93;94.59;99405.20;5193039;56;1134888;-72
2022/09/17 11:24:10;;;;;;;3.30;1.17;;;;;;;15.52;96.57;99406.84;5237396;56;1134791;-71
2022/09/17 11:29:34;;;;;;;4.83;1.57;;;;;;;16.17;94.39;99404.98;5132703;57;1137012;-67
2022/09/17 11:34:52;;;;;;;3.03;0.97;;;;;;;16.67;88.61;99399.44;5020569;57;1137206;-68
2022/09/17 11:40:12;;;;;;;1.13;0.80;;;;;;;16.75;86.69;99394.02;5019477;58;1136917;-72
2022/09/17 11:45:28;;;;;;;1.10;0.53;;;;;;;16.68;86.39;99389.91;5136561;56;1137238;-70
2022/09/17 11:50:43;;;;;;;0.70;0.70;;;;;;;16.36;89.16;99393.75;5085228;57;1136951;-66
2022/09/17 11:55:54;;;;;;;5.73;2.33;;;;;;;16.15;90.58;99399.83;5089865;57;1137197;-70
2022/09/17 12:01:10;;;;;;;2.83;2.00;;;;;;;16.05;94.20;99396.57;5020833;58;1136939;-70
2022/09/17 12:06:23;;;;;;;9.27;4.80;;;;;;;15.86;95.28;99390.44;5136524;56;1136939;-66
2022/09/17 12:11:51;;;;;;;2.67;1.50;;;;;;;15.60;95.38;99396.13;5103620;57;1136934;-72
2022/09/17 12:17:00;;;;;;;1.87;1.07;;;;;;;15.57;96.12;99401.02;5105842;57;1137298;-67
2022/09/17 12:22:17;;;;;;;3.57;1.10;;;;;;;15.40;97.10;99408.27;5136937;56;1137569;-69
2022/09/17 12:27:39;;;;;;;17.73;2.70;;;;;;;15.08;96.32;99418.11;5139532;57;1135110;-68
2022/09/17 12:33:12;;;;;;;19.13;7.43;;;;;;;14.64;96.06;99420.47;5143064;56;1136952;-70
2022/09/17 12:38:38;;;;;;;7.53;1.23;;;;;;;14.38;96.62;99428.64;5137078;57;1137128;-73
2022/09/17 12:44:16;;;;;;;6.00;0.93;;;;;;;13.98;98.58;99457.95;5228277;56;1134925;-66
2022/09/17 12:49:50;;;;;;;2.87;0.60;;;;;;;13.24;100.00;99486.73;5089012;57;1136942;-68
2022/09/17 12:55:42;;;;;;;3.73;1.07;;;;;;;12.64;99.37;99437.70;5100476;57;1139175;-65
2022/09/17 13:01:14;;;;;;;5.80;1.10;;;;;;;12.32;99.96;99442.33;5173498;56;1136973;-69
2022/09/17 13:06:35;;;;;;;9.97;6.73;;;;;;;12.26;100.00;99421.23;5072919;58;1137216;-70
2022/09/17 13:12:11;;;;;;;34.70;17.40;;;;;;;12.40;100.00;99409.71;5147901;56;1139404;-68
2022/09/17 13:17:36;;;;;;;15.60;6.03;;;;;;;12.62;100.00;99411.83;5090525;57;1143248;-69
2022/09/17 13:22:53;;;;;;;7.20;3.07;;;;;;;12.77;100.00;99406.75;5080851;57;1139086;-67
2022/09/17 13:28:10;;;;;;;2.13;1.47;;;;;;;12.92;100.00;99414.42;5216276;56;1136973;-69
2022/09/17 13:33:26;;;;;;;26.60;12.70;;;;;;;13.11;100.00;99421.30;5210453;56;1136977;-69
2022/09/17 13:38:37;;;;;;;17.17;6.80;;;;;;;13.12;100.00;99432.25;5192005;56;1141166;-67
2022/09/17 13:43:46;;;;;;;11.57;3.30;;;;;;;13.07;100.00;99423.93;5225927;56;1139021;-71
2022/09/17 13:48:56;;;;;;;6.87;4.83;;;;;;;13.05;100.00;99422.77;5292797;55;1139235;-66
2022/09/17 13:54:08;;;;;;;2.40;0.97;;;;;;;12.94;100.00;99415.11;5290581;55;1136964;-70
2022/09/17 13:59:24;;;;;;;2.02;0.55;;;;;;;12.85;100.00;99418.20;5241567;56;1134897;-65
2022/09/17 14:04:45;;;;;;;2.67;2.47;;;;;;;12.91;100.00;99409.62;5241693;55;1138988;-67
2022/09/17 14:10:00;;;;;;;14.00;5.57;;;;;;;13.15;100.00;99397.42;5153655;56;1138959;-65
2022/09/17 14:15:33;;;;;;;3.40;2.20;;;;;;;13.66;100.00;99387.03;5268691;55;1141128;-68
2022/09/17 14:20:40;;;;;;;3.93;0.90;;;;;;;14.18;100.00;99391.47;5262536;55;1138962;-69
2022/09/17 14:25:52;;;;;;;3.40;1.20;;;;;;;14.64;100.00;99397.02;5237000;55;1138983;-70
2022/09/17 14:30:57;;;;;;;;;;;;;;;14.69;100.00;99406.63;5229504;55;1138979;-66
2022/09/17 14:36:13;;;;;;;3.73;1.47;;;;;;;14.71;100.00;99393.98;5240977;55;976349;-70
2022/09/17 14:41:34;;;;;;;7.47;1.20;;;;;;;14.89;100.00;99390.57;5189689;56;1136892;-72
2022/09/17 14:46:56;;;;;;;4.87;1.67;;;;;;;15.06;100.00;99386.83;5194767;56;1139055;-71
2022/09/17 14:52:23;;;;;;;3.57;1.10;;;;;;;15.31;100.00;99376.00;5200368;56;1139083;-73
2022/09/17 14:57:30;;;;;;;6.47;1.47;;;;;;;15.48;100.00;99375.71;5201047;56;1139061;-70
2022/09/17 15:02:45;;;;;;;3.97;1.17;;;;;;;15.57;100.00;99379.19;5197296;56;1139127;-69
2022/09/17 15:07:50;;;;;;;3.00;1.30;;;;;;;15.48;100.00;99394.37;5198196;56;1139173;-67
2022/09/17 15:12:57;;;;;;;2.70;1.27;;;;;;;15.17;99.78;99394.91;5221890;56;1136918;-70
2022/09/17 15:18:05;;;;;;;3.95;1.55;;;;;;;14.92;100.00;99387.57;5213246;56;1134945;-73
2022/09/17 15:23:24;;;;;;;4.67;0.97;;;;;;;14.64;100.00;99395.69;5191470;56;1137218;-71
2022/09/17 15:28:36;;;;;;;3.23;0.97;;;;;;;14.34;100.00;99378.13;5167790;56;1137283;-70
2022/09/17 15:33:43;;;;;;;2.33;0.70;;;;;;;14.43;100.00;99377.13;5165821;56;1136872;-68
2022/09/17 15:38:49;;;;;;;2.23;0.63;;;;;;;14.70;100.00;99379.84;5139162;56;1136967;-73
2022/09/17 15:44:07;;;;;;;1.33;0.80;;;;;;;14.94;100.00;99372.75;5152455;56;1136951;-73
2022/09/17 15:49:37;;;;;;;3.77;1.17;;;;;;;14.86;100.00;99382.93;5230982;56;1137156;-72
2022/09/17 17:09:00;;;;;;;8.40;3.70;;;;;;;13.62;100.00;99465.39;5195228;54;46320;-69
2022/09/17 17:14:07;;;;;;;9.13;4.60;;;;;;;13.56;100.00;99472.22;4993609;57;1132980;-65
2022/09/17 17:19:13;;;;;;;8.87;3.20;;;;;;;13.59;100.00;99467.91;4987949;58;1136956;-66
2022/09/17 17:24:19;;;;;;;7.30;3.70;;;;;;;13.59;100.00;99467.08;4987576;58;1137160;-69
2022/09/17 17:29:25;;;;;;;12.43;4.20;;;;;;;13.54;100.00;99475.53;4883718;60;1137040;-69
2022/09/17 17:34:32;;;;;;;17.83;7.30;;;;;;;13.54;100.00;99480.01;5002963;57;1139072;-68
2022/09/17 17:39:38;;;;;;;16.37;7.53;;;;;;;13.55;100.00;99479.84;5068464;57;1139130;-66
2022/09/17 17:44:43;;;;;;;14.87;5.20;;;;;;;13.53;100.00;99472.53;5063020;57;1139032;-65
2022/09/17 17:49:50;;;;;;;7.87;3.80;;;;;;;13.47;100.00;99478.48;4968394;59;1139174;-69
2022/09/17 17:54:55;;;;;;;7.33;3.87;;;;;;;13.46;100.00;99485.28;5128512;57;1137082;-68
2022/09/17 18:00:02;;;;;;;9.37;3.80;;;;;;;13.42;100.00;99491.45;5048851;58;1135036;-68
2022/09/17 18:05:10;;;;;;;10.28;2.95;;;;;;;13.37;100.00;99488.44;5156689;57;1148644;-66
2022/09/17 18:10:17;;;;;;;6.70;2.30;;;;;;;13.20;100.00;99484.89;5058718;58;1141236;-70
2022/09/17 18:15:23;;;;;;;9.50;2.17;;;;;;;13.06;100.00;99486.80;5058869;57;1139001;-69
2022/09/17 18:20:29;;;;;;;7.87;2.13;;;;;;;12.94;100.00;99482.28;5032385;57;1139314;-71
2022/09/17 18:25:35;;;;;;;9.07;2.77;;;;;;;12.84;100.00;99477.58;5060803;58;1138957;-71
2022/09/17 18:30:42;;;;;;;8.83;1.90;;;;;;;12.81;100.00;99482.39;5026479;58;1139042;-73
2022/09/17 18:35:48;;;;;;;6.70;2.40;;;;;;;12.79;100.00;99481.72;5051878;58;1138921;-73
2022/09/17 18:40:54;;;;;;;4.93;1.77;;;;;;;12.73;100.00;99483.66;5077061;57;1138915;-73
2022/09/17 18:46:02;;;;;;;8.20;1.90;;;;;;;12.69;100.00;99483.13;5078071;57;1139070;-73
2022/09/17 18:51:11;;;;;;;8.87;2.33;;;;;;;12.71;100.00;99481.66;5020679;59;1139076;-74
2022/09/17 18:56:21;;;;;;;14.00;2.63;;;;;;;12.66;100.00;99482.98;5021912;59;1139069;-74
2022/09/17 19:01:30;;;;;;;7.83;2.20;;;;;;;12.66;100.00;99494.09;5038178;58;1141432;-74
2022/09/17 19:06:36;;;;;;;10.97;2.10;;;;;;;12.70;100.00;99494.09;5071310;57;1138992;-73
2022/09/17 19:11:42;;;;;;;10.03;2.90;;;;;;;12.72;100.00;99495.26;5058666;57;1141126;-73
2022/09/17 19:16:48;;;;;;;6.37;2.23;;;;;;;12.67;100.00;99487.80;5128924;57;1141386;-73
2022/09/17 19:21:54;;;;;;;8.07;2.33;;;;;;;12.59;100.00;99489.06;5012645;58;1139023;-73
2022/09/17 19:27:00;;;;;;;9.17;2.83;;;;;;;12.52;100.00;99486.71;5001342;58;1139042;-74
2022/09/17 19:32:06;;;;;;;9.83;2.23;;;;;;;12.45;100.00;99492.28;4851245;60;1139102;-74
2022/09/17 19:37:12;;;;;;;8.70;1.83;;;;;;;12.43;100.00;99493.77;4841383;59;1139177;-74
2022/09/17 19:42:18;;;;;;;8.70;2.30;;;;;;;12.39;100.00;99494.22;4932168;59;1139060;-74
2022/09/17 19:47:24;;;;;;;6.30;2.10;;;;;;;12.31;100.00;99484.41;4920988;60;1139041;-74
2022/09/17 19:52:30;;;;;;;7.53;2.20;;;;;;;12.28;100.00;99490.84;4949930;59;1139003;-74
2022/09/17 19:57:37;;;;;;;8.57;2.87;;;;;;;12.27;100.00;99493.66;4958552;59;1139184;-74
2022/09/17 20:02:43;;;;;;;11.13;3.17;;;;;;;12.24;100.00;99492.63;4900891;58;1139207;-74
2022/09/17 20:07:49;;;;;;;9.17;2.33;;;;;;;12.21;100.00;99488.50;4983305;59;1141140;-74
2022/09/17 20:12:56;;;;;;;10.60;2.83;;;;;;;12.18;100.00;99480.02;4953095;59;1139038;-74
2022/09/17 20:18:03;;;;;;;11.23;2.73;;;;;;;12.12;100.00;99484.10;4953653;59;1141097;-74
2022/09/17 20:23:09;;;;;;;9.97;2.37;;;;;;;12.05;100.00;99492.83;4939633;60;1141158;-74
2022/09/17 20:28:15;;;;;;;6.80;2.77;;;;;;;11.88;100.00;99499.32;4953317;59;1139008;-74
2022/09/17 20:33:22;;;;;;;7.33;2.33;;;;;;;11.88;100.00;99499.32;4876289;60;1139037;-74
2022/09/17 20:38:29;;;;;;;6.53;2.40;;;;;;;11.83;100.00;99490.98;4896491;60;1139290;-74
2022/09/17 20:43:37;;;;;;;12.73;2.63;;;;;;;11.76;100.00;99491.27;4942730;59;1139055;-74
2022/09/17 20:48:43;;;;;;;4.83;1.93;;;;;;;11.68;100.00;99505.71;5014301;59;1141414;-74
2022/09/17 20:53:49;;;;;;;7.83;2.33;;;;;;;11.63;100.00;99512.77;5051678;57;1139013;-75
2022/09/17 20:59:07;;;;;;;8.63;3.00;;;;;;;11.64;100.00;99515.77;4982493;58;1139148;-74
2022/09/17 21:04:09;;;;;;;9.77;2.60;;;;;;;11.64;100.00;99520.23;4926844;59;1137158;-74
2022/09/17 21:09:15;;;;;;;8.17;2.73;;;;;;;11.67;100.00;99517.78;4880605;59;1137005;-75
2022/09/17 21:14:23;;;;;;;7.95;2.70;;;;;;;11.66;100.00;99516.94;4878669;60;1137015;-74
2022/09/17 21:19:29;;;;;;;11.00;2.37;;;;;;;11.62;100.00;99513.75;4870609;59;1136987;-75
2022/09/17 21:24:34;;;;;;;10.03;2.12;;;;;;;11.58;100.00;99511.58;4871975;59;1139044;-74
2022/09/17 21:29:40;;;;;;;9.60;2.60;;;;;;;11.58;100.00;99520.84;4830888;60;1139124;-73
2022/09/17 21:34:45;;;;;;;9.50;2.20;;;;;;;11.56;100.00;99520.99;4928477;60;1136950;-74
2022/09/17 21:39:51;;;;;;;6.80;2.50;;;;;;;11.53;100.00;99509.37;5029135;57;1137057;-74
2022/09/17 21:44:57;;;;;;;8.53;2.10;;;;;;;11.48;100.00;99505.00;5155305;56;1136989;-73
2022/09/17 21:50:03;;;;;;;4.77;1.47;;;;;;;11.37;100.00;99503.06;5173859;57;1137045;-74
2022/09/17 21:55:10;;;;;;;3.67;1.20;;;;;;;11.24;100.00;99504.25;5174853;56;1136887;-74
2022/09/17 22:00:17;;;;;;;6.43;2.33;;;;;;;11.18;100.00;99506.64;5147122;57;1137197;-74
2022/09/17 22:05:23;;;;;;;4.53;1.60;;;;;;;11.11;100.00;99499.80;5212055;56;1137014;-74
2022/09/17 22:10:29;;;;;;;3.30;1.30;;;;;;;11.06;100.00;99503.86;5219922;56;1136995;-74
2022/09/17 22:15:35;;;;;;;5.33;1.37;;;;;;;11.04;100.00;99509.30;5221355;56;1136908;-74
2022/09/17 22:20:40;;;;;;;4.15;0.93;;;;;;;11.03;100.00;99502.83;5220335;56;1136918;-74
2022/09/17 22:25:47;;;;;;;4.07;1.83;;;;;;;11.01;100.00;99510.07;5220386;56;1137106;-74
2022/09/17 22:30:53;;;;;;;12.33;2.13;;;;;;;10.99;100.00;99514.70;5220553;56;1135042;-73
2022/09/17 22:36:11;;;;;;;4.17;1.40;;;;;;;10.94;100.00;99511.16;5200358;56;1137449;-74
2022/09/17 22:41:21;;;;;;;5.37;1.50;;;;;;;10.93;100.00;99507.68;5172323;56;1139114;-73
2022/09/17 22:46:31;;;;;;;5.00;1.90;;;;;;;10.91;100.00;99504.84;5214991;56;1138998;-74
2022/09/17 22:51:38;;;;;;;3.77;1.40;;;;;;;10.87;100.00;99510.06;5157527;56;1139015;-74
2022/09/17 22:56:45;;;;;;;3.10;1.40;;;;;;;10.80;100.00;99511.64;5200600;56;1139311;-74
2022/09/17 23:01:51;;;;;;;2.13;1.23;;;;;;;10.76;100.00;99510.25;5129985;56;1139375;-75
2022/09/17 23:06:58;;;;;;;3.10;0.70;;;;;;;10.68;100.00;99506.19;5133801;56;1139146;-74
2022/09/17 23:12:04;;;;;;;2.70;1.13;;;;;;;10.58;100.00;99500.91;5140570;56;1139109;-74
2022/09/17 23:17:10;;;;;;;5.07;1.57;;;;;;;10.53;100.00;99501.85;5149021;56;1139186;-73
2022/09/17 23:22:15;;;;;;;2.60;0.75;;;;;;;10.41;100.00;99491.91;5148225;56;1139047;-74
2022/09/17 23:27:21;;;;;;;3.40;1.30;;;;;;;10.40;100.00;99492.89;5148065;56;1138955;-73
2022/09/17 23:32:27;;;;;;;5.47;1.53;;;;;;;10.33;100.00;99494.45;5139401;56;1139048;-73
2022/09/17 23:37:33;;;;;;;1.90;0.80;;;;;;;10.28;100.00;99498.48;5182288;56;1138899;-73
2022/09/17 23:42:39;;;;;;;4.57;1.47;;;;;;;10.23;100.00;99491.00;5224119;55;1139196;-74
2022/09/17 23:47:45;;;;;;;2.37;0.87;;;;;;;10.18;100.00;99491.42;5212078;56;1138968;-74
2022/09/17 23:52:50;;;;;;;4.00;1.33;;;;;;;10.09;100.00;99483.45;5261932;55;1139100;-74
2022/09/17 23:57:56;;;;;;;3.23;1.50;;;;;;;10.07;100.00;99492.87;5300283;55;1139042;-74
